createdAt,value
2022-10-02T00:04:06.076Z,4.0455
2022-10-02T00:09:18.255Z,4.0504
2022-10-02T00:14:29.871Z,4.0406
2022-10-02T00:19:41.895Z,4.0406
2022-10-02T00:24:53.638Z,4.0504
2022-10-02T00:30:05.573Z,4.0406
2022-10-02T00:35:17.640Z,4.0406
2022-10-02T00:40:29.697Z,4.0406
2022-10-02T00:45:41.995Z,4.0406
2022-10-02T00:50:53.976Z,4.0406
2022-10-02T00:56:06.079Z,4.0406
2022-10-02T01:01:18.278Z,4.0309
2022-10-02T01:06:30.231Z,4.0309
2022-10-02T01:11:42.028Z,4.0455
2022-10-02T01:16:54.385Z,4.0309
2022-10-02T01:22:06.651Z,4.0455
2022-10-02T01:27:18.408Z,4.0309
2022-10-02T01:32:30.271Z,4.0309
2022-10-02T01:37:42.277Z,4.0309
2022-10-02T01:42:54.224Z,4.0309
2022-10-02T01:48:10.291Z,4.0309
2022-10-02T01:53:23.559Z,4.0309
2022-10-02T01:58:35.583Z,4.0309
2022-10-02T02:03:49.565Z,4.0309
2022-10-02T02:09:03.100Z,4.026
2022-10-02T02:14:14.212Z,4.026
2022-10-02T02:19:26.225Z,4.0309
2022-10-02T02:24:38.284Z,4.0406
2022-10-02T02:29:50.206Z,4.026
2022-10-02T02:35:01.957Z,4.026
2022-10-02T02:40:14.068Z,4.026
2022-10-02T02:45:26.218Z,4.026
2022-10-02T02:50:38.030Z,4.026
2022-10-02T02:55:49.954Z,4.026
2022-10-02T03:01:02.417Z,4.026
2022-10-02T03:06:14.285Z,4.026
2022-10-02T03:11:26.144Z,4.026
2022-10-02T03:16:40.268Z,4.0211
2022-10-02T03:21:51.364Z,4.0211
2022-10-02T03:27:03.381Z,4.0211
2022-10-02T03:32:15.360Z,4.0211
2022-10-02T03:37:27.360Z,4.0211
2022-10-02T03:42:39.314Z,4.0211
2022-10-02T03:47:51.439Z,4.0309
2022-10-02T03:53:03.381Z,4.0211
2022-10-02T03:58:15.347Z,4.0211
2022-10-02T04:03:27.588Z,4.0211
2022-10-02T04:08:39.455Z,4.0211
2022-10-02T04:13:51.692Z,4.0211
2022-10-02T04:19:03.869Z,4.026
2022-10-02T04:24:15.643Z,4.0211
2022-10-02T04:29:27.725Z,4.0211
2022-10-02T04:34:39.811Z,4.026
2022-10-02T04:39:51.879Z,4.0211
2022-10-02T04:45:03.906Z,4.0211
2022-10-02T04:50:15.839Z,4.0211
2022-10-02T04:55:27.849Z,4.0211
2022-10-02T05:00:40.082Z,4.0162
2022-10-02T05:05:52.129Z,4.0211
2022-10-02T05:11:04.162Z,4.0211
2022-10-02T05:16:16.566Z,4.0162
2022-10-02T05:21:28.371Z,4.0211
2022-10-02T05:26:40.451Z,4.0162
2022-10-02T05:31:53.054Z,4.0162
2022-10-02T05:37:04.871Z,4.0211
2022-10-02T05:42:16.750Z,4.0162
2022-10-02T05:47:28.884Z,4.0211
2022-10-02T05:52:40.960Z,4.0162
2022-10-02T05:57:52.944Z,4.0162
2022-10-02T06:03:05.413Z,4.0162
2022-10-02T06:08:17.701Z,4.0162
2022-10-02T06:13:29.690Z,4.0162
2022-10-02T06:18:41.796Z,4.0211
2022-10-02T06:23:53.931Z,4.0162
2022-10-02T06:29:06.011Z,4.0162
2022-10-02T06:34:18.155Z,4.0162
2022-10-02T06:39:30.299Z,4.0162
2022-10-02T06:44:42.380Z,4.0162
2022-10-02T06:49:54.403Z,4.0162
2022-10-02T06:55:06.691Z,4.0162
2022-10-02T07:00:18.779Z,4.0162
2022-10-02T07:05:30.964Z,4.0162
2022-10-02T07:10:43.260Z,4.0162
2022-10-02T07:15:55.873Z,4.0211
2022-10-02T07:21:08.052Z,4.0162
2022-10-02T07:26:20.153Z,4.0162
2022-10-02T07:31:32.848Z,4.0162
2022-10-02T07:36:45.189Z,4.0162
2022-10-02T07:41:57.424Z,4.0162
2022-10-02T07:47:09.644Z,4.0211
2022-10-02T07:52:22.356Z,4.0211
2022-10-02T07:57:34.648Z,4.0211
2022-10-02T08:02:47.186Z,4.0211
2022-10-02T08:07:59.593Z,4.0211
2022-10-02T08:13:11.778Z,4.0211
2022-10-02T08:18:36.844Z,4.0211
2022-10-02T08:23:46.450Z,4.026
2022-10-02T08:28:58.710Z,4.0211
2022-10-02T08:34:10.950Z,4.0211
2022-10-02T08:39:23.283Z,4.0211
2022-10-02T08:44:37.517Z,4.0309
2022-10-02T08:49:49.641Z,4.026
2022-10-02T08:55:01.971Z,4.026
2022-10-02T09:00:14.489Z,4.0309
2022-10-02T09:05:27.088Z,4.026
2022-10-02T09:10:39.523Z,4.0309
2022-10-02T09:15:51.919Z,4.0309
2022-10-02T09:21:12.347Z,4.0309
2022-10-02T09:26:22.929Z,4.0406
2022-10-02T09:31:35.652Z,4.0309
2022-10-02T09:36:47.928Z,4.0309
2022-10-02T09:42:00.365Z,4.0309
2022-10-02T09:47:12.500Z,4.0309
2022-10-02T09:52:24.687Z,4.026
2022-10-02T09:57:36.900Z,4.0309
2022-10-02T10:02:49.540Z,4.0455
2022-10-02T10:08:01.793Z,4.0309
2022-10-02T10:13:14.609Z,4.0309
2022-10-02T10:18:26.752Z,4.0309
2022-10-02T10:23:38.967Z,4.0406
2022-10-02T10:28:51.738Z,4.0406
2022-10-02T10:34:03.807Z,4.0309
2022-10-02T10:39:16.262Z,4.0406
2022-10-02T10:44:28.366Z,4.0406
2022-10-02T10:49:40.544Z,4.0309
2022-10-02T10:54:53.135Z,4.0406
2022-10-02T11:00:05.747Z,4.0406
2022-10-02T11:05:17.864Z,4.0504
2022-10-02T11:10:29.988Z,4.0309
2022-10-02T11:15:42.202Z,4.0406
2022-10-02T11:20:54.434Z,4.0406
2022-10-02T11:26:06.732Z,4.0309
2022-10-02T11:31:19.165Z,4.0309
2022-10-02T11:36:31.121Z,4.026
2022-10-02T11:41:43.154Z,4.0309
2022-10-02T11:46:55.315Z,4.0309
2022-10-02T11:52:07.426Z,4.0309
2022-10-02T11:57:19.633Z,4.0309
2022-10-02T12:02:32.464Z,4.0309
2022-10-02T12:07:44.628Z,4.0455
2022-10-02T12:12:57.200Z,4.0406
2022-10-02T12:18:09.671Z,4.0455
2022-10-02T12:23:22.241Z,4.0504
2022-10-02T12:28:34.815Z,4.0455
2022-10-02T12:33:46.978Z,4.0406
2022-10-02T12:39:03.752Z,4.0455
2022-10-02T12:44:18.528Z,4.0455
2022-10-02T12:54:40.630Z,4.0455
2022-10-02T12:59:52.849Z,4.0309
2022-10-02T13:05:04.713Z,4.0309
2022-10-02T13:10:17.393Z,4.0309
2022-10-02T13:15:29.336Z,4.0309
2022-10-02T13:20:41.471Z,4.0309
2022-10-02T13:25:54.030Z,4.0309
2022-10-02T13:31:07.328Z,4.0553
2022-10-02T13:36:20.649Z,4.0699
2022-10-02T13:46:45.337Z,4.0699
2022-10-02T13:51:57.263Z,4.0504
2022-10-02T13:57:12.153Z,4.0553
2022-10-02T14:07:34.147Z,4.065
2022-10-02T14:12:45.966Z,4.0602
2022-10-02T14:17:58.073Z,4.0602
2022-10-02T14:23:10.247Z,4.065
2022-10-02T14:28:22.918Z,4.0602
2022-10-02T14:33:34.813Z,4.0553
2022-10-02T14:38:47.110Z,4.0504
2022-10-02T14:43:59.172Z,4.0553
2022-10-02T14:49:11.358Z,4.0504
2022-10-02T14:54:23.562Z,4.0504
2022-10-02T14:59:35.534Z,4.0504
2022-10-02T15:04:47.411Z,4.0504
2022-10-02T15:09:59.422Z,4.0455
2022-10-02T15:15:11.522Z,4.0504
2022-10-02T15:20:23.589Z,4.0455
2022-10-02T15:25:35.759Z,4.0455
2022-10-02T15:30:47.875Z,4.0455
2022-10-02T15:36:00.179Z,4.0455
2022-10-02T15:41:12.721Z,4.0455
2022-10-02T15:46:24.808Z,4.0455
2022-10-02T15:51:37.050Z,4.0455
2022-10-02T15:56:49.471Z,4.0406
2022-10-02T16:02:02.014Z,4.0406
2022-10-02T16:07:13.951Z,4.0455
2022-10-02T16:12:26.405Z,4.0406
2022-10-02T16:17:38.455Z,4.0455
2022-10-02T16:22:50.867Z,4.0406
2022-10-02T16:28:03.673Z,4.0406
2022-10-02T16:33:15.786Z,4.0309
2022-10-02T16:38:28.179Z,4.0309
2022-10-02T16:43:40.408Z,4.0309
2022-10-02T16:48:52.393Z,4.0309
2022-10-02T16:54:04.499Z,4.0309
2022-10-02T16:59:16.754Z,4.0309
2022-10-02T17:04:29.053Z,4.0309
2022-10-02T17:09:41.175Z,4.0406
2022-10-02T17:14:53.580Z,4.0309
2022-10-02T17:20:05.676Z,4.026
2022-10-02T17:25:17.938Z,4.0309
2022-10-02T17:30:30.413Z,4.026
2022-10-02T17:35:42.504Z,4.0309
2022-10-02T17:40:54.603Z,4.0309
2022-10-02T17:46:07.177Z,4.026
2022-10-02T17:51:54.113Z,4.026
2022-10-02T17:57:01.440Z,4.0309
2022-10-02T18:02:13.776Z,4.026
2022-10-02T18:07:25.791Z,4.026
2022-10-02T18:12:37.824Z,4.026
2022-10-02T18:17:50.331Z,4.026
2022-10-02T18:23:02.449Z,4.0211
2022-10-02T18:28:15.046Z,4.0211
2022-10-02T18:33:27.049Z,4.0211
2022-10-02T18:38:39.110Z,4.0211
2022-10-02T18:43:51.652Z,4.0211
2022-10-02T18:49:08.009Z,4.0211
2022-10-02T18:54:22.481Z,4.0211
2022-10-02T18:59:34.645Z,4.0211
2022-10-02T19:04:47.065Z,4.0211
2022-10-02T19:09:59.034Z,4.0211
2022-10-02T19:15:11.231Z,4.0211
2022-10-02T19:20:23.434Z,4.0211
2022-10-02T19:25:35.421Z,4.0211
2022-10-02T19:30:47.673Z,4.026
2022-10-02T19:35:59.981Z,4.0211
2022-10-02T19:41:12.457Z,4.0211
2022-10-02T19:46:24.581Z,4.0211
2022-10-02T19:51:38.415Z,4.0211
2022-10-02T19:56:50.440Z,4.0211
2022-10-02T20:02:02.925Z,4.0162
2022-10-02T20:07:15.365Z,4.0162
2022-10-02T20:12:27.550Z,4.0162
2022-10-02T20:17:39.640Z,4.0162
2022-10-02T20:22:51.982Z,4.0162
2022-10-02T20:28:04.744Z,4.0162
2022-10-02T20:33:19.507Z,4.0162
2022-10-02T20:38:32.248Z,4.0162
2022-10-02T20:43:44.021Z,4.0162
2022-10-02T20:49:10.857Z,4.0162
2022-10-02T20:54:20.051Z,4.0162
2022-10-02T20:59:32.149Z,4.0162
2022-10-02T21:04:44.285Z,4.0162
2022-10-02T21:09:56.608Z,4.0162
2022-10-02T21:15:08.895Z,4.0162
2022-10-02T21:20:52.641Z,4.0162
2022-10-02T21:26:00.778Z,4.0114
2022-10-02T21:31:12.818Z,4.0114
2022-10-02T21:36:24.805Z,4.0114
2022-10-02T21:41:39.034Z,4.0114
2022-10-02T21:46:50.596Z,4.0114
2022-10-02T21:52:02.706Z,4.0114
2022-10-02T21:57:15.207Z,4.0114
2022-10-02T22:02:27.584Z,4.0114
2022-10-02T22:07:39.518Z,4.0114
2022-10-02T22:12:51.756Z,4.0162
2022-10-02T22:18:03.992Z,4.0114
2022-10-02T22:23:16.094Z,4.0114
2022-10-02T22:28:28.862Z,4.0162
2022-10-02T22:33:40.830Z,4.0114
2022-10-02T22:38:52.929Z,4.0114
2022-10-02T22:44:05.123Z,4.0114
2022-10-02T22:49:17.176Z,4.0162
2022-10-02T22:54:29.342Z,4.0114
2022-10-02T22:59:41.640Z,4.0162
2022-10-02T23:04:53.934Z,4.0114
2022-10-02T23:10:06.195Z,4.0114
2022-10-02T23:15:18.536Z,4.0162
2022-10-02T23:20:30.692Z,4.0114
2022-10-02T23:25:42.985Z,4.0114
2022-10-02T23:30:55.654Z,4.0114
2022-10-02T23:36:07.746Z,4.0114
2022-10-02T23:41:19.866Z,4.0114
2022-10-02T23:46:32.453Z,4.0114
2022-10-02T23:51:44.400Z,4.0065
2022-10-02T23:56:56.610Z,4.0114
